sensor_id;sensor_type;location;lat;lon;timestamp;P1;durP1;ratioP1;P2;durP2;ratioP2
16416;SDS011;8317;52.186;5.688;2023-07-22T00:00:36;8.20;;;4.50;;
16416;SDS011;8317;52.186;5.688;2023-07-22T00:03:03;9.63;;;5.00;;
16416;SDS011;8317;52.186;5.688;2023-07-22T00:05:30;9.75;;;4.97;;
16416;SDS011;8317;52.186;5.688;2023-07-22T00:07:56;9.23;;;4.95;;
16416;SDS011;8317;52.186;5.688;2023-07-22T00:10:23;8.05;;;5.13;;
16416;SDS011;8317;52.186;5.688;2023-07-22T00:12:50;7.68;;;4.88;;
16416;SDS011;8317;52.186;5.688;2023-07-22T00:15:17;7.90;;;4.70;;
16416;SDS011;8317;52.186;5.688;2023-07-22T00:17:46;11.20;;;5.32;;
16416;SDS011;8317;52.186;5.688;2023-07-22T00:20:14;9.20;;;5.55;;
16416;SDS011;8317;52.186;5.688;2023-07-22T00:22:41;10.70;;;5.60;;
16416;SDS011;8317;52.186;5.688;2023-07-22T00:25:09;9.63;;;5.10;;
16416;SDS011;8317;52.186;5.688;2023-07-22T00:27:37;9.93;;;5.38;;
16416;SDS011;8317;52.186;5.688;2023-07-22T00:30:04;8.68;;;5.47;;
16416;SDS011;8317;52.186;5.688;2023-07-22T00:32:32;11.52;;;5.55;;
16416;SDS011;8317;52.186;5.688;2023-07-22T00:35:00;8.65;;;5.22;;
16416;SDS011;8317;52.186;5.688;2023-07-22T00:37:27;10.00;;;4.82;;
16416;SDS011;8317;52.186;5.688;2023-07-22T00:39:54;10.93;;;5.40;;
16416;SDS011;8317;52.186;5.688;2023-07-22T00:42:21;7.47;;;3.92;;
16416;SDS011;8317;52.186;5.688;2023-07-22T00:44:48;9.23;;;5.40;;
16416;SDS011;8317;52.186;5.688;2023-07-22T00:47:15;11.45;;;5.45;;
16416;SDS011;8317;52.186;5.688;2023-07-22T00:49:43;7.13;;;5.15;;
16416;SDS011;8317;52.186;5.688;2023-07-22T00:52:14;9.20;;;5.40;;
16416;SDS011;8317;52.186;5.688;2023-07-22T00:54:42;8.50;;;5.05;;
16416;SDS011;8317;52.186;5.688;2023-07-22T00:57:10;11.45;;;4.95;;
16416;SDS011;8317;52.186;5.688;2023-07-22T00:59:38;9.18;;;5.10;;
16416;SDS011;8317;52.186;5.688;2023-07-22T01:02:06;9.73;;;5.53;;
16416;SDS011;8317;52.186;5.688;2023-07-22T01:04:34;9.65;;;4.95;;
16416;SDS011;8317;52.186;5.688;2023-07-22T01:07:01;10.50;;;5.53;;
16416;SDS011;8317;52.186;5.688;2023-07-22T01:09:35;14.07;;;5.80;;
16416;SDS011;8317;52.186;5.688;2023-07-22T01:12:03;7.90;;;4.45;;
16416;SDS011;8317;52.186;5.688;2023-07-22T01:14:31;10.82;;;5.90;;
16416;SDS011;8317;52.186;5.688;2023-07-22T01:16:58;13.07;;;5.50;;
16416;SDS011;8317;52.186;5.688;2023-07-22T01:19:26;6.82;;;4.20;;
16416;SDS011;8317;52.186;5.688;2023-07-22T01:21:53;8.27;;;5.00;;
16416;SDS011;8317;52.186;5.688;2023-07-22T01:24:22;11.80;;;6.03;;
16416;SDS011;8317;52.186;5.688;2023-07-22T01:26:49;10.40;;;5.68;;
16416;SDS011;8317;52.186;5.688;2023-07-22T01:29:16;10.15;;;5.45;;
16416;SDS011;8317;52.186;5.688;2023-07-22T01:31:45;8.93;;;5.30;;
16416;SDS011;8317;52.186;5.688;2023-07-22T01:34:13;9.20;;;4.78;;
16416;SDS011;8317;52.186;5.688;2023-07-22T01:36:40;9.52;;;5.43;;
16416;SDS011;8317;52.186;5.688;2023-07-22T01:39:08;10.57;;;6.10;;
16416;SDS011;8317;52.186;5.688;2023-07-22T01:41:37;9.52;;;4.93;;
16416;SDS011;8317;52.186;5.688;2023-07-22T01:44:04;6.90;;;4.03;;
16416;SDS011;8317;52.186;5.688;2023-07-22T01:46:31;9.38;;;5.40;;
16416;SDS011;8317;52.186;5.688;2023-07-22T01:48:58;12.18;;;5.90;;
16416;SDS011;8317;52.186;5.688;2023-07-22T01:51:24;9.98;;;5.78;;
16416;SDS011;8317;52.186;5.688;2023-07-22T01:53:51;7.68;;;4.78;;
16416;SDS011;8317;52.186;5.688;2023-07-22T01:56:18;9.70;;;5.22;;
16416;SDS011;8317;52.186;5.688;2023-07-22T01:58:47;12.02;;;5.03;;
16416;SDS011;8317;52.186;5.688;2023-07-22T02:01:14;12.48;;;5.25;;
16416;SDS011;8317;52.186;5.688;2023-07-22T02:03:41;13.20;;;5.93;;
16416;SDS011;8317;52.186;5.688;2023-07-22T02:06:08;9.35;;;4.90;;
16416;SDS011;8317;52.186;5.688;2023-07-22T02:08:35;12.45;;;5.70;;
16416;SDS011;8317;52.186;5.688;2023-07-22T02:11:02;9.35;;;5.13;;
16416;SDS011;8317;52.186;5.688;2023-07-22T02:13:31;10.82;;;4.75;;
16416;SDS011;8317;52.186;5.688;2023-07-22T02:15:59;8.68;;;4.25;;
16416;SDS011;8317;52.186;5.688;2023-07-22T02:18:27;9.15;;;5.22;;
16416;SDS011;8317;52.186;5.688;2023-07-22T02:20:54;10.90;;;5.65;;
16416;SDS011;8317;52.186;5.688;2023-07-22T02:23:21;12.27;;;5.70;;
16416;SDS011;8317;52.186;5.688;2023-07-22T02:25:49;9.15;;;5.65;;
16416;SDS011;8317;52.186;5.688;2023-07-22T02:28:17;9.95;;;5.35;;
16416;SDS011;8317;52.186;5.688;2023-07-22T02:30:46;10.13;;;5.65;;
16416;SDS011;8317;52.186;5.688;2023-07-22T02:33:14;9.43;;;5.70;;
16416;SDS011;8317;52.186;5.688;2023-07-22T02:35:41;10.90;;;5.43;;
16416;SDS011;8317;52.186;5.688;2023-07-22T02:38:08;10.23;;;4.88;;
16416;SDS011;8317;52.186;5.688;2023-07-22T02:40:35;17.42;;;6.57;;
16416;SDS011;8317;52.186;5.688;2023-07-22T02:43:02;9.50;;;5.13;;
16416;SDS011;8317;52.186;5.688;2023-07-22T02:45:30;11.52;;;5.30;;
16416;SDS011;8317;52.186;5.688;2023-07-22T02:47:57;8.48;;;4.68;;
16416;SDS011;8317;52.186;5.688;2023-07-22T02:50:25;11.23;;;5.70;;
16416;SDS011;8317;52.186;5.688;2023-07-22T02:52:52;9.35;;;4.93;;
16416;SDS011;8317;52.186;5.688;2023-07-22T02:55:19;7.55;;;5.03;;
16416;SDS011;8317;52.186;5.688;2023-07-22T02:57:48;8.52;;;5.53;;
16416;SDS011;8317;52.186;5.688;2023-07-22T03:00:16;9.02;;;5.30;;
16416;SDS011;8317;52.186;5.688;2023-07-22T03:02:48;10.25;;;5.13;;
16416;SDS011;8317;52.186;5.688;2023-07-22T03:05:15;10.57;;;5.97;;
16416;SDS011;8317;52.186;5.688;2023-07-22T03:07:44;13.10;;;5.75;;
16416;SDS011;8317;52.186;5.688;2023-07-22T03:10:11;9.35;;;5.10;;
16416;SDS011;8317;52.186;5.688;2023-07-22T03:12:38;9.20;;;5.28;;
16416;SDS011;8317;52.186;5.688;2023-07-22T03:15:05;9.13;;;5.63;;
16416;SDS011;8317;52.186;5.688;2023-07-22T03:17:33;10.95;;;6.07;;
16416;SDS011;8317;52.186;5.688;2023-07-22T03:20:01;10.35;;;5.55;;
16416;SDS011;8317;52.186;5.688;2023-07-22T03:22:31;11.80;;;5.72;;
16416;SDS011;8317;52.186;5.688;2023-07-22T03:24:59;9.73;;;5.50;;
16416;SDS011;8317;52.186;5.688;2023-07-22T03:27:26;9.13;;;5.63;;
16416;SDS011;8317;52.186;5.688;2023-07-22T03:29:53;7.55;;;4.97;;
16416;SDS011;8317;52.186;5.688;2023-07-22T03:32:20;10.73;;;5.30;;
16416;SDS011;8317;52.186;5.688;2023-07-22T03:34:46;10.55;;;5.63;;
16416;SDS011;8317;52.186;5.688;2023-07-22T03:37:13;10.25;;;5.25;;
16416;SDS011;8317;52.186;5.688;2023-07-22T03:39:40;10.48;;;5.63;;
16416;SDS011;8317;52.186;5.688;2023-07-22T03:42:09;12.75;;;5.40;;
16416;SDS011;8317;52.186;5.688;2023-07-22T03:44:35;7.97;;;4.35;;
16416;SDS011;8317;52.186;5.688;2023-07-22T03:47:02;9.57;;;5.53;;
16416;SDS011;8317;52.186;5.688;2023-07-22T03:49:30;10.63;;;5.28;;
16416;SDS011;8317;52.186;5.688;2023-07-22T03:51:57;8.95;;;5.32;;
16416;SDS011;8317;52.186;5.688;2023-07-22T03:54:23;16.35;;;6.45;;
16416;SDS011;8317;52.186;5.688;2023-07-22T03:56:50;9.43;;;5.43;;
16416;SDS011;8317;52.186;5.688;2023-07-22T03:59:19;7.95;;;4.72;;
16416;SDS011;8317;52.186;5.688;2023-07-22T04:01:45;6.57;;;4.25;;
16416;SDS011;8317;52.186;5.688;2023-07-22T04:04:12;9.20;;;4.68;;
16416;SDS011;8317;52.186;5.688;2023-07-22T04:06:39;9.57;;;5.03;;
16416;SDS011;8317;52.186;5.688;2023-07-22T04:09:07;11.90;;;5.38;;
16416;SDS011;8317;52.186;5.688;2023-07-22T04:11:34;9.80;;;5.60;;
16416;SDS011;8317;52.186;5.688;2023-07-22T04:14:00;14.65;;;7.40;;
16416;SDS011;8317;52.186;5.688;2023-07-22T04:16:29;11.35;;;5.70;;
16416;SDS011;8317;52.186;5.688;2023-07-22T04:18:56;13.02;;;6.75;;
16416;SDS011;8317;52.186;5.688;2023-07-22T04:21:23;12.75;;;5.78;;
16416;SDS011;8317;52.186;5.688;2023-07-22T04:23:50;18.17;;;6.80;;
16416;SDS011;8317;52.186;5.688;2023-07-22T04:26:16;15.48;;;7.55;;
16416;SDS011;8317;52.186;5.688;2023-07-22T04:28:44;12.77;;;5.90;;
16416;SDS011;8317;52.186;5.688;2023-07-22T04:31:11;15.38;;;6.97;;
16416;SDS011;8317;52.186;5.688;2023-07-22T04:33:39;12.00;;;6.38;;
16416;SDS011;8317;52.186;5.688;2023-07-22T04:36:07;12.77;;;6.50;;
16416;SDS011;8317;52.186;5.688;2023-07-22T04:38:34;14.15;;;5.95;;
16416;SDS011;8317;52.186;5.688;2023-07-22T04:41:02;14.10;;;7.15;;
16416;SDS011;8317;52.186;5.688;2023-07-22T04:43:30;12.45;;;6.53;;
16416;SDS011;8317;52.186;5.688;2023-07-22T04:45:57;12.20;;;6.05;;
16416;SDS011;8317;52.186;5.688;2023-07-22T04:48:24;15.68;;;7.55;;
16416;SDS011;8317;52.186;5.688;2023-07-22T04:50:53;12.02;;;6.82;;
16416;SDS011;8317;52.186;5.688;2023-07-22T04:53:20;20.52;;;8.23;;
16416;SDS011;8317;52.186;5.688;2023-07-22T04:55:48;14.07;;;7.03;;
16416;SDS011;8317;52.186;5.688;2023-07-22T04:58:15;16.23;;;7.75;;
16416;SDS011;8317;52.186;5.688;2023-07-22T05:00:42;15.20;;;7.20;;
16416;SDS011;8317;52.186;5.688;2023-07-22T05:03:08;17.25;;;7.10;;
16416;SDS011;8317;52.186;5.688;2023-07-22T05:05:35;13.77;;;6.82;;
16416;SDS011;8317;52.186;5.688;2023-07-22T05:08:04;15.82;;;7.05;;
16416;SDS011;8317;52.186;5.688;2023-07-22T05:10:32;18.67;;;7.20;;
16416;SDS011;8317;52.186;5.688;2023-07-22T05:12:59;19.75;;;8.20;;
16416;SDS011;8317;52.186;5.688;2023-07-22T05:15:26;18.45;;;7.38;;
16416;SDS011;8317;52.186;5.688;2023-07-22T05:17:53;18.52;;;8.98;;
16416;SDS011;8317;52.186;5.688;2023-07-22T05:20:20;15.77;;;7.45;;
16416;SDS011;8317;52.186;5.688;2023-07-22T05:22:47;19.52;;;8.05;;
16416;SDS011;8317;52.186;5.688;2023-07-22T05:25:16;17.92;;;7.75;;
16416;SDS011;8317;52.186;5.688;2023-07-22T05:27:43;13.88;;;7.30;;
16416;SDS011;8317;52.186;5.688;2023-07-22T05:30:10;13.32;;;7.30;;
16416;SDS011;8317;52.186;5.688;2023-07-22T05:32:37;19.38;;;8.40;;
16416;SDS011;8317;52.186;5.688;2023-07-22T05:35:04;18.05;;;7.60;;
16416;SDS011;8317;52.186;5.688;2023-07-22T05:37:31;21.85;;;8.70;;
16416;SDS011;8317;52.186;5.688;2023-07-22T05:39:58;19.30;;;9.13;;
16416;SDS011;8317;52.186;5.688;2023-07-22T05:42:27;20.38;;;8.40;;
16416;SDS011;8317;52.186;5.688;2023-07-22T05:44:55;22.60;;;8.13;;
16416;SDS011;8317;52.186;5.688;2023-07-22T05:47:23;19.15;;;10.05;;
16416;SDS011;8317;52.186;5.688;2023-07-22T05:49:50;23.92;;;8.75;;
16416;SDS011;8317;52.186;5.688;2023-07-22T05:52:17;19.92;;;8.93;;
16416;SDS011;8317;52.186;5.688;2023-07-22T05:54:44;25.95;;;10.23;;
16416;SDS011;8317;52.186;5.688;2023-07-22T05:57:11;18.02;;;8.60;;
16416;SDS011;8317;52.186;5.688;2023-07-22T05:59:39;22.25;;;8.60;;
16416;SDS011;8317;52.186;5.688;2023-07-22T06:02:07;22.75;;;9.60;;
16416;SDS011;8317;52.186;5.688;2023-07-22T06:04:35;23.50;;;9.98;;
16416;SDS011;8317;52.186;5.688;2023-07-22T06:07:02;23.33;;;9.23;;
16416;SDS011;8317;52.186;5.688;2023-07-22T06:09:29;20.77;;;10.02;;
16416;SDS011;8317;52.186;5.688;2023-07-22T06:11:56;19.58;;;9.18;;
16416;SDS011;8317;52.186;5.688;2023-07-22T06:14:23;18.13;;;8.90;;
16416;SDS011;8317;52.186;5.688;2023-07-22T06:16:51;26.15;;;9.80;;
16416;SDS011;8317;52.186;5.688;2023-07-22T06:19:18;30.25;;;10.40;;
16416;SDS011;8317;52.186;5.688;2023-07-22T06:21:45;28.02;;;10.07;;
16416;SDS011;8317;52.186;5.688;2023-07-22T06:24:12;24.67;;;9.25;;
16416;SDS011;8317;52.186;5.688;2023-07-22T06:26:38;26.25;;;8.85;;
16416;SDS011;8317;52.186;5.688;2023-07-22T06:29:05;19.42;;;9.20;;
16416;SDS011;8317;52.186;5.688;2023-07-22T06:31:32;18.83;;;9.05;;
16416;SDS011;8317;52.186;5.688;2023-07-22T06:34:00;25.55;;;9.90;;
16416;SDS011;8317;52.186;5.688;2023-07-22T06:36:28;24.70;;;9.38;;
16416;SDS011;8317;52.186;5.688;2023-07-22T06:38:55;22.08;;;10.50;;
16416;SDS011;8317;52.186;5.688;2023-07-22T06:41:22;25.08;;;9.30;;
16416;SDS011;8317;52.186;5.688;2023-07-22T06:43:49;27.80;;;10.02;;
16416;SDS011;8317;52.186;5.688;2023-07-22T06:46:16;22.98;;;9.38;;
16416;SDS011;8317;52.186;5.688;2023-07-22T06:48:43;22.98;;;8.70;;
16416;SDS011;8317;52.186;5.688;2023-07-22T06:51:12;22.83;;;9.65;;
16416;SDS011;8317;52.186;5.688;2023-07-22T06:53:38;26.77;;;10.00;;
16416;SDS011;8317;52.186;5.688;2023-07-22T06:56:05;20.13;;;9.25;;
16416;SDS011;8317;52.186;5.688;2023-07-22T06:58:32;30.08;;;11.00;;
16416;SDS011;8317;52.186;5.688;2023-07-22T07:00:59;22.23;;;10.73;;
16416;SDS011;8317;52.186;5.688;2023-07-22T07:03:26;26.38;;;9.52;;
16416;SDS011;8317;52.186;5.688;2023-07-22T07:05:53;22.67;;;10.18;;
16416;SDS011;8317;52.186;5.688;2023-07-22T07:08:22;18.42;;;8.52;;
16416;SDS011;8317;52.186;5.688;2023-07-22T07:10:49;16.98;;;8.75;;
16416;SDS011;8317;52.186;5.688;2023-07-22T07:13:16;21.00;;;7.97;;
16416;SDS011;8317;52.186;5.688;2023-07-22T07:15:45;22.42;;;10.38;;
16416;SDS011;8317;52.186;5.688;2023-07-22T07:18:13;19.92;;;9.25;;
16416;SDS011;8317;52.186;5.688;2023-07-22T07:20:40;26.20;;;9.32;;
16416;SDS011;8317;52.186;5.688;2023-07-22T07:23:07;18.13;;;9.05;;
16416;SDS011;8317;52.186;5.688;2023-07-22T07:25:35;16.40;;;9.02;;
16416;SDS011;8317;52.186;5.688;2023-07-22T07:28:03;18.63;;;8.90;;
16416;SDS011;8317;52.186;5.688;2023-07-22T07:30:30;20.60;;;8.02;;
16416;SDS011;8317;52.186;5.688;2023-07-22T07:32:57;23.13;;;8.68;;
16416;SDS011;8317;52.186;5.688;2023-07-22T07:35:24;17.40;;;8.48;;
16416;SDS011;8317;52.186;5.688;2023-07-22T07:37:51;15.85;;;7.63;;
16416;SDS011;8317;52.186;5.688;2023-07-22T07:40:18;25.33;;;8.43;;
16416;SDS011;8317;52.186;5.688;2023-07-22T07:42:46;14.85;;;7.40;;
16416;SDS011;8317;52.186;5.688;2023-07-22T07:45:13;19.20;;;7.43;;
16416;SDS011;8317;52.186;5.688;2023-07-22T07:47:40;16.33;;;7.93;;
16416;SDS011;8317;52.186;5.688;2023-07-22T07:50:08;13.18;;;7.43;;
16416;SDS011;8317;52.186;5.688;2023-07-22T07:52:35;16.55;;;7.38;;
16416;SDS011;8317;52.186;5.688;2023-07-22T07:55:03;14.38;;;7.30;;
16416;SDS011;8317;52.186;5.688;2023-07-22T07:57:31;14.63;;;7.60;;
16416;SDS011;8317;52.186;5.688;2023-07-22T07:59:59;12.45;;;5.82;;
16416;SDS011;8317;52.186;5.688;2023-07-22T08:02:26;12.63;;;6.65;;
16416;SDS011;8317;52.186;5.688;2023-07-22T08:04:53;16.60;;;6.72;;
16416;SDS011;8317;52.186;5.688;2023-07-22T08:07:20;18.38;;;8.02;;
16416;SDS011;8317;52.186;5.688;2023-07-22T08:09:47;17.15;;;7.05;;
16416;SDS011;8317;52.186;5.688;2023-07-22T08:12:15;14.65;;;7.50;;
16416;SDS011;8317;52.186;5.688;2023-07-22T08:14:42;14.20;;;6.72;;
16416;SDS011;8317;52.186;5.688;2023-07-22T08:17:10;13.02;;;6.28;;
16416;SDS011;8317;52.186;5.688;2023-07-22T08:19:37;12.65;;;7.05;;
16416;SDS011;8317;52.186;5.688;2023-07-22T08:22:04;16.20;;;7.13;;
16416;SDS011;8317;52.186;5.688;2023-07-22T08:24:31;13.25;;;6.35;;
16416;SDS011;8317;52.186;5.688;2023-07-22T08:26:58;13.10;;;6.63;;
16416;SDS011;8317;52.186;5.688;2023-07-22T08:29:25;13.98;;;7.57;;
16416;SDS011;8317;52.186;5.688;2023-07-22T08:31:52;12.95;;;6.45;;
16416;SDS011;8317;52.186;5.688;2023-07-22T08:34:20;9.85;;;5.40;;
16416;SDS011;8317;52.186;5.688;2023-07-22T08:36:47;17.60;;;6.50;;
16416;SDS011;8317;52.186;5.688;2023-07-22T08:39:15;13.35;;;6.95;;
16416;SDS011;8317;52.186;5.688;2023-07-22T08:41:42;12.68;;;5.82;;
16416;SDS011;8317;52.186;5.688;2023-07-22T08:44:15;12.07;;;5.97;;
16416;SDS011;8317;52.186;5.688;2023-07-22T08:46:46;11.13;;;6.15;;
16416;SDS011;8317;52.186;5.688;2023-07-22T08:49:15;19.38;;;6.55;;
16416;SDS011;8317;52.186;5.688;2023-07-22T08:51:44;9.50;;;5.75;;
16416;SDS011;8317;52.186;5.688;2023-07-22T08:54:12;10.98;;;4.93;;
16416;SDS011;8317;52.186;5.688;2023-07-22T08:56:40;11.95;;;6.20;;
16416;SDS011;8317;52.186;5.688;2023-07-22T08:59:08;8.38;;;5.25;;
16416;SDS011;8317;52.186;5.688;2023-07-22T09:01:36;10.60;;;5.40;;
16416;SDS011;8317;52.186;5.688;2023-07-22T09:04:04;9.52;;;4.38;;
16416;SDS011;8317;52.186;5.688;2023-07-22T09:06:31;8.30;;;4.20;;
16416;SDS011;8317;52.186;5.688;2023-07-22T09:09:00;6.95;;;4.68;;
16416;SDS011;8317;52.186;5.688;2023-07-22T09:11:32;5.95;;;3.92;;
16416;SDS011;8317;52.186;5.688;2023-07-22T09:13:59;8.07;;;3.90;;
16416;SDS011;8317;52.186;5.688;2023-07-22T09:16:28;8.68;;;4.10;;
16416;SDS011;8317;52.186;5.688;2023-07-22T09:18:57;6.45;;;3.53;;
16416;SDS011;8317;52.186;5.688;2023-07-22T09:21:24;7.53;;;4.70;;
16416;SDS011;8317;52.186;5.688;2023-07-22T09:23:53;6.60;;;3.75;;
16416;SDS011;8317;52.186;5.688;2023-07-22T09:26:21;7.20;;;3.20;;
16416;SDS011;8317;52.186;5.688;2023-07-22T09:28:49;11.23;;;3.65;;
16416;SDS011;8317;52.186;5.688;2023-07-22T09:31:18;4.82;;;3.17;;
16416;SDS011;8317;52.186;5.688;2023-07-22T09:33:46;8.38;;;4.00;;
16416;SDS011;8317;52.186;5.688;2023-07-22T09:36:13;6.60;;;3.35;;
16416;SDS011;8317;52.186;5.688;2023-07-22T09:38:40;6.10;;;3.30;;
16416;SDS011;8317;52.186;5.688;2023-07-22T09:41:07;8.82;;;3.53;;
16416;SDS011;8317;52.186;5.688;2023-07-22T09:43:39;6.38;;;3.03;;
16416;SDS011;8317;52.186;5.688;2023-07-22T09:46:07;6.82;;;4.25;;
16416;SDS011;8317;52.186;5.688;2023-07-22T09:48:41;4.82;;;3.33;;
16416;SDS011;8317;52.186;5.688;2023-07-22T09:51:13;8.75;;;3.63;;
16416;SDS011;8317;52.186;5.688;2023-07-22T09:53:45;10.15;;;3.55;;
16416;SDS011;8317;52.186;5.688;2023-07-22T09:56:12;10.13;;;3.85;;
16416;SDS011;8317;52.186;5.688;2023-07-22T09:58:40;4.38;;;2.90;;
16416;SDS011;8317;52.186;5.688;2023-07-22T10:01:12;4.30;;;2.72;;
16416;SDS011;8317;52.186;5.688;2023-07-22T10:03:41;10.00;;;3.13;;
16416;SDS011;8317;52.186;5.688;2023-07-22T10:06:11;9.93;;;3.35;;
16416;SDS011;8317;52.186;5.688;2023-07-22T10:08:40;7.38;;;3.83;;
16416;SDS011;8317;52.186;5.688;2023-07-22T10:11:10;6.72;;;4.05;;
16416;SDS011;8317;52.186;5.688;2023-07-22T10:13:40;6.63;;;4.07;;
16416;SDS011;8317;52.186;5.688;2023-07-22T10:16:07;10.27;;;4.00;;
16416;SDS011;8317;52.186;5.688;2023-07-22T10:18:34;6.20;;;3.47;;
16416;SDS011;8317;52.186;5.688;2023-07-22T10:21:03;6.57;;;3.85;;
16416;SDS011;8317;52.186;5.688;2023-07-22T10:23:30;8.52;;;4.10;;
16416;SDS011;8317;52.186;5.688;2023-07-22T10:25:58;5.10;;;3.50;;
16416;SDS011;8317;52.186;5.688;2023-07-22T10:28:26;7.68;;;4.45;;
16416;SDS011;8317;52.186;5.688;2023-07-22T10:30:55;5.78;;;4.20;;
16416;SDS011;8317;52.186;5.688;2023-07-22T10:33:23;7.35;;;4.60;;
16416;SDS011;8317;52.186;5.688;2023-07-22T10:36:04;6.25;;;4.00;;
16416;SDS011;8317;52.186;5.688;2023-07-22T10:38:31;6.13;;;4.30;;
16416;SDS011;8317;52.186;5.688;2023-07-22T10:40:58;8.07;;;4.63;;
16416;SDS011;8317;52.186;5.688;2023-07-22T10:43:26;9.77;;;4.70;;
16416;SDS011;8317;52.186;5.688;2023-07-22T10:45:57;6.93;;;4.78;;
16416;SDS011;8317;52.186;5.688;2023-07-22T10:48:34;8.95;;;4.63;;
16416;SDS011;8317;52.186;5.688;2023-07-22T10:51:04;7.05;;;5.25;;
16416;SDS011;8317;52.186;5.688;2023-07-22T10:53:32;7.28;;;4.13;;
16416;SDS011;8317;52.186;5.688;2023-07-22T10:56:13;6.65;;;4.43;;
16416;SDS011;8317;52.186;5.688;2023-07-22T10:58:55;8.43;;;4.40;;
16416;SDS011;8317;52.186;5.688;2023-07-22T11:01:30;7.82;;;4.43;;
16416;SDS011;8317;52.186;5.688;2023-07-22T11:04:11;12.38;;;4.78;;
16416;SDS011;8317;52.186;5.688;2023-07-22T11:06:56;9.05;;;4.65;;
16416;SDS011;8317;52.186;5.688;2023-07-22T11:12:11;9.82;;;4.53;;
16416;SDS011;8317;52.186;5.688;2023-07-22T11:14:44;5.95;;;3.83;;
16416;SDS011;8317;52.186;5.688;2023-07-22T11:17:14;9.30;;;5.18;;
16416;SDS011;8317;52.186;5.688;2023-07-22T11:19:42;5.55;;;3.70;;
16416;SDS011;8317;52.186;5.688;2023-07-22T11:22:10;8.23;;;4.22;;
16416;SDS011;8317;52.186;5.688;2023-07-22T11:24:37;7.55;;;5.05;;
16416;SDS011;8317;52.186;5.688;2023-07-22T11:27:04;7.68;;;4.80;;
16416;SDS011;8317;52.186;5.688;2023-07-22T11:29:33;7.50;;;4.22;;
16416;SDS011;8317;52.186;5.688;2023-07-22T11:32:01;6.30;;;3.92;;
16416;SDS011;8317;52.186;5.688;2023-07-22T11:34:30;8.65;;;5.03;;
16416;SDS011;8317;52.186;5.688;2023-07-22T11:36:57;8.30;;;4.28;;
16416;SDS011;8317;52.186;5.688;2023-07-22T11:39:24;11.98;;;5.38;;
16416;SDS011;8317;52.186;5.688;2023-07-22T11:41:52;9.57;;;4.80;;
16416;SDS011;8317;52.186;5.688;2023-07-22T11:44:20;9.00;;;4.50;;
16416;SDS011;8317;52.186;5.688;2023-07-22T11:46:49;9.18;;;5.28;;
16416;SDS011;8317;52.186;5.688;2023-07-22T11:49:22;7.97;;;5.63;;
16416;SDS011;8317;52.186;5.688;2023-07-22T11:51:52;7.75;;;5.50;;
16416;SDS011;8317;52.186;5.688;2023-07-22T11:54:21;11.18;;;5.68;;
16416;SDS011;8317;52.186;5.688;2023-07-22T11:56:48;7.57;;;5.72;;
16416;SDS011;8317;52.186;5.688;2023-07-22T11:59:15;8.52;;;5.38;;
16416;SDS011;8317;52.186;5.688;2023-07-22T12:01:43;12.45;;;6.13;;
16416;SDS011;8317;52.186;5.688;2023-07-22T12:04:11;7.32;;;5.40;;
16416;SDS011;8317;52.186;5.688;2023-07-22T12:06:38;7.88;;;5.15;;
16416;SDS011;8317;52.186;5.688;2023-07-22T12:09:08;12.13;;;5.07;;
16416;SDS011;8317;52.186;5.688;2023-07-22T12:11:35;9.35;;;4.82;;
16416;SDS011;8317;52.186;5.688;2023-07-22T12:14:09;7.18;;;4.60;;
16416;SDS011;8317;52.186;5.688;2023-07-22T12:16:37;9.82;;;4.65;;
16416;SDS011;8317;52.186;5.688;2023-07-22T12:19:05;6.38;;;3.88;;
16416;SDS011;8317;52.186;5.688;2023-07-22T12:21:32;5.53;;;3.90;;
16416;SDS011;8317;52.186;5.688;2023-07-22T12:24:00;5.60;;;3.67;;
16416;SDS011;8317;52.186;5.688;2023-07-22T12:26:30;6.55;;;3.28;;
16416;SDS011;8317;52.186;5.688;2023-07-22T12:28:57;6.43;;;3.50;;
16416;SDS011;8317;52.186;5.688;2023-07-22T12:31:24;10.77;;;5.03;;
16416;SDS011;8317;52.186;5.688;2023-07-22T12:33:51;4.78;;;4.03;;
16416;SDS011;8317;52.186;5.688;2023-07-22T12:36:19;5.68;;;3.90;;
16416;SDS011;8317;52.186;5.688;2023-07-22T12:38:45;9.35;;;4.25;;
16416;SDS011;8317;52.186;5.688;2023-07-22T12:41:12;15.13;;;5.78;;
16416;SDS011;8317;52.186;5.688;2023-07-22T12:43:41;8.23;;;5.63;;
16416;SDS011;8317;52.186;5.688;2023-07-22T12:46:07;5.97;;;4.95;;
16416;SDS011;8317;52.186;5.688;2023-07-22T12:48:34;9.93;;;6.20;;
16416;SDS011;8317;52.186;5.688;2023-07-22T12:51:01;8.35;;;5.63;;
16416;SDS011;8317;52.186;5.688;2023-07-22T12:53:28;8.40;;;6.15;;
16416;SDS011;8317;52.186;5.688;2023-07-22T12:55:55;10.20;;;6.03;;
16416;SDS011;8317;52.186;5.688;2023-07-22T12:58:22;12.93;;;6.57;;
16416;SDS011;8317;52.186;5.688;2023-07-22T13:00:50;7.70;;;6.20;;
16416;SDS011;8317;52.186;5.688;2023-07-22T13:03:17;8.02;;;5.90;;
16416;SDS011;8317;52.186;5.688;2023-07-22T13:05:44;8.35;;;5.95;;
16416;SDS011;8317;52.186;5.688;2023-07-22T13:08:11;6.18;;;5.57;;
16416;SDS011;8317;52.186;5.688;2023-07-22T13:10:38;8.38;;;5.47;;
16416;SDS011;8317;52.186;5.688;2023-07-22T13:13:08;14.15;;;6.07;;
16416;SDS011;8317;52.186;5.688;2023-07-22T13:15:35;8.15;;;5.97;;
16416;SDS011;8317;52.186;5.688;2023-07-22T13:18:04;9.60;;;5.32;;
16416;SDS011;8317;52.186;5.688;2023-07-22T13:20:31;7.25;;;5.20;;
16416;SDS011;8317;52.186;5.688;2023-07-22T13:22:58;14.25;;;6.72;;
16416;SDS011;8317;52.186;5.688;2023-07-22T13:25:25;8.18;;;7.13;;
16416;SDS011;8317;52.186;5.688;2023-07-22T13:27:52;11.88;;;6.03;;
16416;SDS011;8317;52.186;5.688;2023-07-22T13:30:18;7.90;;;5.40;;
16416;SDS011;8317;52.186;5.688;2023-07-22T13:32:45;9.23;;;5.22;;
16416;SDS011;8317;52.186;5.688;2023-07-22T13:35:13;9.43;;;4.72;;
16416;SDS011;8317;52.186;5.688;2023-07-22T13:37:40;10.98;;;4.63;;
16416;SDS011;8317;52.186;5.688;2023-07-22T13:40:08;10.50;;;4.47;;
16416;SDS011;8317;52.186;5.688;2023-07-22T13:42:36;10.40;;;5.22;;
16416;SDS011;8317;52.186;5.688;2023-07-22T13:45:04;6.60;;;4.95;;
16416;SDS011;8317;52.186;5.688;2023-07-22T13:47:31;6.32;;;4.93;;
16416;SDS011;8317;52.186;5.688;2023-07-22T13:49:58;7.03;;;5.30;;
16416;SDS011;8317;52.186;5.688;2023-07-22T13:52:27;8.40;;;4.40;;
16416;SDS011;8317;52.186;5.688;2023-07-22T13:54:53;8.07;;;5.00;;
16416;SDS011;8317;52.186;5.688;2023-07-22T13:57:20;5.40;;;4.82;;
16416;SDS011;8317;52.186;5.688;2023-07-22T13:59:47;7.78;;;4.40;;
16416;SDS011;8317;52.186;5.688;2023-07-22T14:02:14;7.30;;;4.85;;
16416;SDS011;8317;52.186;5.688;2023-07-22T14:04:41;9.95;;;5.78;;
16416;SDS011;8317;52.186;5.688;2023-07-22T14:07:08;7.18;;;5.15;;
16416;SDS011;8317;52.186;5.688;2023-07-22T14:09:36;6.15;;;4.95;;
16416;SDS011;8317;52.186;5.688;2023-07-22T14:12:03;6.53;;;4.30;;
16416;SDS011;8317;52.186;5.688;2023-07-22T14:14:30;8.57;;;4.15;;
16416;SDS011;8317;52.186;5.688;2023-07-22T14:16:58;5.93;;;3.55;;
16416;SDS011;8317;52.186;5.688;2023-07-22T14:19:25;4.13;;;2.70;;
16416;SDS011;8317;52.186;5.688;2023-07-22T14:21:53;6.35;;;3.55;;
16416;SDS011;8317;52.186;5.688;2023-07-22T14:24:20;6.32;;;3.60;;
16416;SDS011;8317;52.186;5.688;2023-07-22T14:26:48;5.15;;;3.53;;
16416;SDS011;8317;52.186;5.688;2023-07-22T14:29:15;5.82;;;3.25;;
16416;SDS011;8317;52.186;5.688;2023-07-22T14:31:42;6.72;;;3.15;;
16416;SDS011;8317;52.186;5.688;2023-07-22T14:34:09;5.28;;;3.10;;
16416;SDS011;8317;52.186;5.688;2023-07-22T14:36:36;2.95;;;2.65;;
16416;SDS011;8317;52.186;5.688;2023-07-22T14:39:03;3.22;;;2.53;;
16416;SDS011;8317;52.186;5.688;2023-07-22T14:41:30;3.95;;;3.20;;
16416;SDS011;8317;52.186;5.688;2023-07-22T14:43:58;7.50;;;2.45;;
16416;SDS011;8317;52.186;5.688;2023-07-22T14:46:25;3.75;;;2.80;;
16416;SDS011;8317;52.186;5.688;2023-07-22T14:48:52;3.67;;;2.30;;
16416;SDS011;8317;52.186;5.688;2023-07-22T14:51:19;6.38;;;2.33;;
16416;SDS011;8317;52.186;5.688;2023-07-22T14:53:46;4.13;;;2.13;;
16416;SDS011;8317;52.186;5.688;2023-07-22T14:56:12;2.38;;;2.20;;
16416;SDS011;8317;52.186;5.688;2023-07-22T14:58:39;3.05;;;2.63;;
16416;SDS011;8317;52.186;5.688;2023-07-22T15:01:09;3.47;;;2.33;;